Berkel en Rodenrijs, Netherlands
Current Conditions -  °F | °C
As of 9:55 PM on Saturday 20 Dec 2014 (Local Time) from EHRD Reporting Station
Broken Clouds Broken Clouds  
Wind Chill: 38°   Ceiling: 3300
Heat Index: 45°   Visibility: 6mi
Dew Point: 39°   Wind: 14mph
Humidity: 81%   Direction: 280°W
Pressure: 30.3"   Gusts: NA
Location:  51.99°N, 4.48°E
Report Text: EHRD 202055Z AUTO 28012KT 240V310 9999 FEW015CB BKN033 BKN03807/04 Q1026 TEMPO 29020G30KT 7000 -SHRAGS
Loading
Personal Weather Stations






























Interactive Weather Map New forecast layout! Learn more

10-Day Weather Forecast

Advertisements
Track Severe Weather on mobile